Time;durP1;ratioP1;P1;durP2;ratioP2;P2;SDS_P1;SDS_P2;PMS_P1;PMS_P2;Temp;Humidity;BMP_temperature;BMP_pressure;BME280_temperature;BME280_humidity;BME280_pressure;Samples;Min_cycle;Max_cycle;Signal;HPM_P1;HPM_P2
2023/08/09 00:02:40;;;;;;;1.90;1.33;;;16.00;99.90;;;;;;4973272;28;20412;-72
2023/08/09 00:05:26;;;;;;;3.40;1.80;;;16.00;99.90;;;;;;4979321;28;20046;-72
2023/08/09 00:08:12;;;;;;;2.25;1.48;;;15.90;99.90;;;;;;4989225;28;20034;-72
2023/08/09 00:10:58;;;;;;;2.72;1.35;;;15.90;99.90;;;;;;4974874;28;20046;-72
2023/08/09 00:13:44;;;;;;;2.55;1.75;;;15.90;99.90;;;;;;4989958;28;20092;-72
2023/08/09 00:16:30;;;;;;;3.95;1.77;;;15.80;99.90;;;;;;4990407;28;20049;-72
2023/08/09 00:19:15;;;;;;;3.10;1.88;;;15.80;99.90;;;;;;4987366;28;20096;-72
2023/08/09 00:22:02;;;;;;;3.60;1.60;;;15.80;99.90;;;;;;4977693;28;20045;-71
2023/08/09 00:24:48;;;;;;;5.25;1.40;;;15.70;99.90;;;;;;4976268;28;20057;-71
2023/08/09 00:27:34;;;;;;;2.47;1.40;;;15.80;99.90;;;;;;4978201;28;20157;-71
2023/08/09 00:30:22;;;;;;;3.22;1.80;;;15.80;99.90;;;;;;4975893;28;20475;-71
2023/08/09 00:33:08;;;;;;;3.30;1.63;;;15.70;99.90;;;;;;4992110;28;20035;-72
2023/08/09 00:35:54;;;;;;;3.75;1.77;;;15.70;99.90;;;;;;4985847;28;20050;-71
2023/08/09 00:38:40;;;;;;;2.83;1.70;;;15.70;99.90;;;;;;4980460;28;20130;-71
2023/08/09 00:41:26;;;;;;;8.15;2.38;;;15.70;99.90;;;;;;4981600;28;20039;-71
2023/08/09 00:44:12;;;;;;;2.60;1.60;;;15.70;99.90;;;;;;4972482;28;20065;-71
2023/08/09 00:46:58;;;;;;;3.00;2.03;;;15.70;99.90;;;;;;4987708;28;20038;-72
2023/08/09 00:49:45;;;;;;;2.63;1.27;;;15.70;99.90;;;;;;4988207;28;20053;-75
2023/08/09 00:52:32;;;;;;;2.97;1.30;;;15.70;99.90;;;;;;4977122;28;20046;-74
2023/08/09 00:55:17;;;;;;;2.72;1.40;;;15.70;99.90;;;;;;4995462;28;20042;-75
2023/08/09 00:58:03;;;;;;;2.30;1.30;;;15.70;99.90;;;;;;4994983;28;20046;-75
2023/08/09 01:00:49;;;;;;;4.32;1.58;;;15.70;99.90;;;;;;4981051;28;20061;-75
2023/08/09 01:03:35;;;;;;;2.53;1.58;;;15.70;99.90;;;;;;4992085;28;20407;-75
2023/08/09 01:06:36;;;;;;;1.83;1.35;;;15.70;99.90;;;;;;4988904;28;20046;-75
2023/08/09 01:09:33;;;;;;;3.05;1.48;;;15.70;99.90;;;;;;4991510;28;20130;-76
2023/08/09 01:12:24;;;;;;;2.60;1.95;;;15.80;99.90;;;;;;4988803;28;20658;-75
2023/08/09 01:15:12;;;;;;;4.43;1.50;;;15.80;99.90;;;;;;4987681;28;20053;-74
2023/08/09 01:18:00;;;;;;;2.78;1.50;;;15.70;99.90;;;;;;4990545;28;20069;-74
2023/08/09 01:20:49;;;;;;;3.03;1.77;;;15.70;99.90;;;;;;4988784;28;20117;-75
2023/08/09 01:23:38;;;;;;;2.92;1.65;;;15.70;99.90;;;;;;4990736;28;20438;-75
2023/08/09 01:26:24;;;;;;;4.50;1.63;;;15.80;99.90;;;;;;4986872;28;20046;-77
2023/08/09 01:29:10;;;;;;;4.38;1.60;;;15.70;99.90;;;;;;4986185;28;20047;-76
2023/08/09 01:31:56;;;;;;;3.47;2.17;;;15.80;99.90;;;;;;4990146;28;20057;-76
2023/08/09 01:34:42;;;;;;;3.20;1.73;;;15.80;99.90;;;;;;4987563;28;20434;-78
2023/08/09 01:37:55;;;;;;;3.80;1.70;;;15.80;99.90;;;;;;4983533;28;20057;-75
2023/08/09 01:40:42;;;;;;;2.40;1.70;;;15.80;99.90;;;;;;4977268;28;20043;-79
2023/08/09 01:43:30;;;;;;;3.10;1.30;;;15.80;99.90;;;;;;4988812;28;20050;-76
2023/08/09 01:46:16;;;;;;;1.95;1.42;;;15.80;99.90;;;;;;4982271;28;20050;-71
2023/08/09 01:49:13;;;;;;;4.55;1.63;;;15.80;99.90;;;;;;4989106;28;20559;-73
2023/08/09 01:51:59;;;;;;;2.90;1.50;;;15.80;99.90;;;;;;4987372;28;20050;-79
2023/08/09 01:54:45;;;;;;;3.30;1.70;;;15.80;99.90;;;;;;4985851;28;20050;-79
2023/08/09 01:57:31;;;;;;;2.67;1.83;;;15.80;99.90;;;;;;4974827;28;20108;-78
2023/08/09 02:00:19;;;;;;;2.28;1.50;;;15.80;99.90;;;;;;4974987;28;20468;-77
2023/08/09 02:03:06;;;;;;;2.30;1.70;;;15.80;99.90;;;;;;4976829;28;20042;-78
2023/08/09 02:05:52;;;;;;;3.58;1.55;;;15.80;99.90;;;;;;4987638;28;20054;-78
2023/08/09 02:08:38;;;;;;;2.80;1.40;;;15.80;99.90;;;;;;4985962;28;20054;-79
2023/08/09 02:11:24;;;;;;;3.13;1.40;;;15.80;99.90;;;;;;4986529;28;20439;-79
2023/08/09 02:14:10;;;;;;;2.42;1.60;;;15.80;99.90;;;;;;4978762;28;20051;-77
2023/08/09 02:16:57;;;;;;;2.47;1.60;;;15.80;99.90;;;;;;4986617;28;20197;-78
2023/08/09 02:19:43;;;;;;;2.30;1.80;;;15.90;99.90;;;;;;4975461;28;20126;-79
2023/08/09 02:22:35;;;;;;;2.30;1.55;;;15.90;99.90;;;;;;4971816;28;20077;-79
2023/08/09 02:25:21;;;;;;;3.40;1.73;;;15.90;99.90;;;;;;4973434;28;20483;-78
2023/08/09 02:28:08;;;;;;;2.85;1.65;;;15.90;99.90;;;;;;4988182;28;20061;-78
2023/08/09 02:30:54;;;;;;;3.10;1.52;;;15.90;99.90;;;;;;4983176;28;20054;-80
2023/08/09 02:33:40;;;;;;;2.10;1.42;;;15.90;99.90;;;;;;4985966;28;20080;-79
2023/08/09 02:36:26;;;;;;;2.45;1.38;;;15.90;99.90;;;;;;4985080;28;20438;-79
2023/08/09 02:39:12;;;;;;;3.17;1.38;;;15.90;99.90;;;;;;4993709;28;20050;-79
2023/08/09 02:41:59;;;;;;;3.80;2.13;;;15.90;99.90;;;;;;4979054;28;20053;-79
2023/08/09 02:44:45;;;;;;;2.50;1.60;;;15.90;99.90;;;;;;4979589;28;20054;-79
2023/08/09 02:47:31;;;;;;;2.65;1.40;;;15.90;99.90;;;;;;4986231;28;20043;-78
2023/08/09 02:50:17;;;;;;;2.75;1.58;;;15.90;99.90;;;;;;4991910;28;20050;-77
2023/08/09 02:53:04;;;;;;;2.30;1.55;;;15.90;99.90;;;;;;4993712;28;20042;-75
2023/08/09 02:55:49;;;;;;;2.22;1.60;;;15.90;99.90;;;;;;4989201;28;20043;-78
2023/08/09 02:58:35;;;;;;;2.17;1.30;;;15.90;99.90;;;;;;4975504;28;20121;-77
2023/08/09 03:01:21;;;;;;;2.45;1.45;;;15.90;99.90;;;;;;4989087;28;20511;-77
2023/08/09 03:04:07;;;;;;;2.22;1.52;;;15.90;99.90;;;;;;4995934;28;20090;-78
2023/08/09 03:06:53;;;;;;;3.40;1.60;;;15.90;99.90;;;;;;4994351;28;20052;-77
2023/08/09 03:09:40;;;;;;;2.35;1.38;;;15.90;99.90;;;;;;4990624;28;20752;-75
2023/08/09 03:12:26;;;;;;;3.28;1.40;;;15.90;99.90;;;;;;4990897;28;20039;-75
2023/08/09 03:15:13;;;;;;;3.42;1.92;;;15.90;99.90;;;;;;4992771;28;20046;-76
2023/08/09 03:17:59;;;;;;;5.43;1.83;;;15.90;99.90;;;;;;4993848;28;20050;-75
2023/08/09 03:20:44;;;;;;;3.65;1.70;;;15.90;99.90;;;;;;4977483;28;20415;-76
2023/08/09 03:23:31;;;;;;;3.45;1.75;;;15.90;99.90;;;;;;4992726;28;20042;-75
2023/08/09 03:26:16;;;;;;;2.25;1.60;;;15.90;99.90;;;;;;4988999;28;20050;-75
2023/08/09 03:29:02;;;;;;;2.45;1.50;;;15.90;99.90;;;;;;4993340;28;20042;-75
2023/08/09 03:31:48;;;;;;;2.90;1.40;;;16.00;99.90;;;;;;4987478;28;20038;-75
2023/08/09 03:34:34;;;;;;;2.88;1.67;;;16.00;99.90;;;;;;4996819;28;20125;-75
2023/08/09 03:37:20;;;;;;;2.38;1.58;;;15.90;99.90;;;;;;4993036;28;20529;-75
2023/08/09 03:40:12;;;;;;;3.30;1.42;;;15.90;99.90;;;;;;4991009;28;20038;-75
2023/08/09 03:42:57;;;;;;;1.83;1.35;;;15.90;99.90;;;;;;4990959;28;20057;-75
2023/08/09 03:45:43;;;;;;;2.05;1.40;;;16.00;99.90;;;;;;4983804;28;20055;-75
2023/08/09 03:48:29;;;;;;;3.72;1.83;;;15.90;99.90;;;;;;4991779;28;20411;-82
2023/08/09 03:51:15;;;;;;;4.13;1.65;;;15.90;99.90;;;;;;4991195;28;20054;-80
2023/08/09 03:54:01;;;;;;;5.80;2.10;;;15.90;99.90;;;;;;4991437;28;20046;-82
2023/08/09 03:56:47;;;;;;;2.50;1.48;;;15.90;99.90;;;;;;4991091;28;20042;-82
2023/08/09 03:59:33;;;;;;;3.08;1.70;;;15.90;99.90;;;;;;4976847;28;20046;-83
2023/08/09 04:02:19;;;;;;;1.95;1.33;;;15.90;99.90;;;;;;4973093;28;20053;-82
2023/08/09 04:05:05;;;;;;;2.85;1.67;;;16.00;99.90;;;;;;4981903;28;20051;-82
2023/08/09 04:07:51;;;;;;;3.20;1.58;;;16.00;99.90;;;;;;4992566;28;20104;-81
2023/08/09 04:10:38;;;;;;;4.53;1.70;;;16.00;99.90;;;;;;4988866;28;20042;-83
2023/08/09 04:13:23;;;;;;;2.53;1.48;;;16.00;99.90;;;;;;4991592;28;20038;-82
2023/08/09 04:16:10;;;;;;;1.70;1.30;;;16.00;99.90;;;;;;4990968;28;20054;-81
2023/08/09 04:18:57;;;;;;;3.03;1.70;;;16.00;99.90;;;;;;4991072;28;20533;-81
2023/08/09 04:21:43;;;;;;;3.92;1.40;;;16.00;99.90;;;;;;4989890;28;20637;-81
2023/08/09 04:24:28;;;;;;;3.53;2.03;;;16.00;99.90;;;;;;4991601;28;20108;-81
2023/08/09 04:27:15;;;;;;;3.28;1.55;;;16.00;99.90;;;;;;4992736;28;20042;-81
2023/08/09 04:30:00;;;;;;;2.65;1.58;;;16.00;99.90;;;;;;4989402;28;20086;-81
2023/08/09 04:32:46;;;;;;;2.28;1.10;;;16.00;99.90;;;;;;4992819;28;20038;-80
2023/08/09 04:35:33;;;;;;;3.17;1.58;;;16.00;99.90;;;;;;4989400;28;20046;-80
2023/08/09 04:38:19;;;;;;;2.13;1.45;;;16.00;99.90;;;;;;4991395;28;20459;-81
2023/08/09 04:41:05;;;;;;;4.15;1.60;;;16.00;99.90;;;;;;4988243;28;20046;-81
2023/08/09 04:43:51;;;;;;;3.25;1.20;;;16.00;99.90;;;;;;4992400;28;20045;-79
2023/08/09 04:46:37;;;;;;;2.55;1.70;;;16.10;99.90;;;;;;4979443;28;20049;-81
2023/08/09 04:49:23;;;;;;;4.90;1.50;;;16.10;99.90;;;;;;4976120;28;20050;-81
2023/08/09 04:52:09;;;;;;;3.25;1.35;;;16.20;99.90;;;;;;4989512;28;20399;-82
2023/08/09 04:54:55;;;;;;;5.15;2.25;;;16.20;99.90;;;;;;4989102;28;20043;-82
2023/08/09 04:57:42;;;;;;;3.30;1.83;;;16.20;99.90;;;;;;4971235;28;20065;-82
2023/08/09 05:00:28;;;;;;;3.75;1.50;;;16.20;99.90;;;;;;4981923;28;20046;-81
2023/08/09 05:03:14;;;;;;;2.42;1.50;;;16.20;99.90;;;;;;4986688;28;20042;-82
2023/08/09 05:06:02;;;;;;;4.70;1.58;;;16.20;99.90;;;;;;4982067;28;20069;-81
2023/08/09 05:08:48;;;;;;;3.72;1.58;;;16.30;99.90;;;;;;4991068;28;20045;-82
2023/08/09 05:11:34;;;;;;;2.65;1.40;;;16.30;99.90;;;;;;4988654;28;20164;-82
2023/08/09 05:14:20;;;;;;;8.52;2.58;;;16.20;99.90;;;;;;4991249;28;20050;-82
2023/08/09 05:17:06;;;;;;;4.53;2.08;;;16.30;99.90;;;;;;4990252;28;20035;-82
2023/08/09 05:19:52;;;;;;;2.80;1.75;;;16.30;99.90;;;;;;4984321;28;20051;-81
2023/08/09 05:22:38;;;;;;;3.50;1.60;;;16.20;99.90;;;;;;4983406;28;20034;-82
2023/08/09 05:25:24;;;;;;;2.10;1.50;;;16.20;99.90;;;;;;4990143;28;20054;-82
2023/08/09 05:28:10;;;;;;;2.90;1.33;;;16.20;99.80;;;;;;4991811;28;20518;-82
2023/08/09 05:30:56;;;;;;;2.83;1.40;;;16.20;99.70;;;;;;4987567;28;20525;-82
2023/08/09 05:33:42;;;;;;;2.17;1.50;;;16.20;99.60;;;;;;4991062;28;20038;-82
2023/08/09 05:36:28;;;;;;;3.92;1.73;;;16.20;99.50;;;;;;4989018;28;20538;-76
2023/08/09 05:39:14;;;;;;;3.35;1.40;;;16.20;99.40;;;;;;4976489;28;20653;-77
2023/08/09 05:42:00;;;;;;;3.85;1.25;;;16.20;99.40;;;;;;4988472;28;20112;-79
2023/08/09 05:44:46;;;;;;;3.63;1.48;;;16.20;99.30;;;;;;4987526;28;20177;-78
2023/08/09 05:47:32;;;;;;;3.65;2.10;;;16.20;99.30;;;;;;4970508;28;20031;-78
2023/08/09 05:50:18;;;;;;;3.20;1.33;;;16.20;99.30;;;;;;4980241;28;20064;-78
2023/08/09 05:53:04;;;;;;;4.00;1.77;;;16.20;99.30;;;;;;4990658;28;20038;-78
2023/08/09 05:55:50;;;;;;;4.25;1.30;;;16.20;99.50;;;;;;4986414;28;20483;-78
2023/08/09 05:58:36;;;;;;;3.75;1.50;;;16.30;99.30;;;;;;4990429;28;20543;-77
2023/08/09 06:01:21;;;;;;;3.17;1.30;;;16.30;99.20;;;;;;4977938;28;20034;-76
2023/08/09 06:04:07;;;;;;;2.25;1.40;;;16.30;99.10;;;;;;4973905;28;20035;-76
2023/08/09 06:06:53;;;;;;;6.18;1.77;;;16.40;98.90;;;;;;4998407;28;20431;-74
2023/08/09 06:09:39;;;;;;;6.10;2.20;;;16.40;98.80;;;;;;4972878;28;20045;-76
2023/08/09 06:12:25;;;;;;;3.67;1.15;;;16.40;98.80;;;;;;4976456;28;20100;-77
2023/08/09 06:15:11;;;;;;;3.58;1.63;;;16.50;98.70;;;;;;4988871;28;20039;-81
2023/08/09 06:17:57;;;;;;;6.55;1.80;;;16.60;98.70;;;;;;4964923;28;20415;-80
2023/08/09 06:20:43;;;;;;;3.50;1.45;;;16.70;98.70;;;;;;4962811;28;20077;-81
2023/08/09 06:23:29;;;;;;;3.20;1.50;;;16.80;98.70;;;;;;4975560;28;20094;-78
2023/08/09 06:26:15;;;;;;;5.10;2.35;;;16.90;98.50;;;;;;4962019;28;20050;-78
2023/08/09 06:29:01;;;;;;;7.15;1.73;;;17.00;98.50;;;;;;4976423;28;20035;-80
2023/08/09 06:31:47;;;;;;;3.13;1.40;;;17.10;98.40;;;;;;4981972;28;20078;-79
2023/08/09 06:34:33;;;;;;;3.38;1.40;;;17.10;98.10;;;;;;4982823;28;20039;-78
2023/08/09 06:37:19;;;;;;;4.80;1.75;;;17.10;98.00;;;;;;4988964;28;20403;-79
2023/08/09 06:40:09;;;;;;;6.88;2.08;;;17.10;97.90;;;;;;4984666;28;20035;-79
2023/08/09 06:42:54;;;;;;;5.05;1.40;;;17.10;97.90;;;;;;4989178;28;20070;-76
2023/08/09 06:45:40;;;;;;;4.13;1.20;;;17.10;97.70;;;;;;4981351;28;20046;-76
2023/08/09 06:48:29;;;;;;;3.85;1.98;;;17.10;97.70;;;;;;4989310;28;20377;-78
2023/08/09 06:51:15;;;;;;;4.45;1.42;;;17.20;97.70;;;;;;4985467;28;20054;-77
2023/08/09 06:54:01;;;;;;;3.03;1.30;;;17.20;97.70;;;;;;4988009;28;20057;-77
2023/08/09 06:56:47;;;;;;;5.28;1.70;;;17.20;97.70;;;;;;4987957;28;20038;-78
2023/08/09 06:59:34;;;;;;;2.97;1.23;;;17.30;97.60;;;;;;4973069;28;20458;-77
2023/08/09 07:02:20;;;;;;;4.28;1.45;;;17.40;97.70;;;;;;4984054;28;20116;-77
2023/08/09 07:05:09;;;;;;;4.40;1.52;;;17.40;97.80;;;;;;4971331;28;20546;-78
2023/08/09 07:07:56;;;;;;;3.42;1.30;;;17.50;97.60;;;;;;4988527;28;20047;-78
2023/08/09 07:10:42;;;;;;;2.50;1.60;;;17.60;97.60;;;;;;4979574;28;20082;-78
2023/08/09 07:13:28;;;;;;;3.25;1.42;;;17.70;97.70;;;;;;4989661;28;20054;-79
2023/08/09 07:16:13;;;;;;;3.50;1.30;;;17.80;97.70;;;;;;4988216;28;20042;-77
2023/08/09 07:18:59;;;;;;;2.58;1.23;;;17.90;97.50;;;;;;4988648;28;20038;-78
2023/08/09 07:21:45;;;;;;;2.30;1.23;;;17.90;97.40;;;;;;4985681;28;20057;-79
2023/08/09 07:24:31;;;;;;;2.72;1.27;;;18.00;97.20;;;;;;4984464;28;20464;-74
2023/08/09 07:27:17;;;;;;;2.35;1.20;;;18.10;97.10;;;;;;4993707;28;20104;-79
2023/08/09 07:30:05;;;;;;;6.40;2.33;;;18.20;97.00;;;;;;4988253;28;20046;-79
2023/08/09 07:32:51;;;;;;;6.50;1.85;;;18.30;96.90;;;;;;4973817;28;20057;-80
2023/08/09 07:35:36;;;;;;;4.93;1.42;;;18.40;96.70;;;;;;4991380;28;20050;-79
2023/08/09 07:38:22;;;;;;;4.35;1.77;;;18.50;96.30;;;;;;4992318;28;20050;-73
2023/08/09 07:41:09;;;;;;;3.55;2.10;;;18.60;96.30;;;;;;4990637;28;20050;-76
2023/08/09 07:43:55;;;;;;;2.63;1.33;;;18.50;96.20;;;;;;4974200;28;20492;-77
2023/08/09 07:46:41;;;;;;;3.20;1.15;;;18.60;96.40;;;;;;4974868;28;20136;-79
2023/08/09 07:49:27;;;;;;;8.40;1.58;;;18.70;96.10;;;;;;4992151;28;20128;-78
2023/08/09 07:52:13;;;;;;;4.18;1.45;;;18.70;95.40;;;;;;4991133;28;20046;-77
2023/08/09 07:54:59;;;;;;;3.63;1.33;;;18.60;95.40;;;;;;4973298;28;20053;-78
2023/08/09 07:57:45;;;;;;;4.25;1.40;;;18.60;95.40;;;;;;4988867;28;20042;-76
2023/08/09 08:00:31;;;;;;;2.67;1.30;;;18.70;95.50;;;;;;4984603;28;20081;-77
2023/08/09 08:03:18;;;;;;;4.55;1.20;;;18.80;95.40;;;;;;4980514;28;20467;-77
2023/08/09 08:06:04;;;;;;;2.08;1.10;;;18.90;95.40;;;;;;4982509;28;20058;-75
2023/08/09 08:08:51;;;;;;;3.38;1.33;;;19.00;95.30;;;;;;4973965;28;20042;-78
2023/08/09 08:11:37;;;;;;;3.78;1.45;;;19.10;95.20;;;;;;4985528;28;20116;-77
2023/08/09 08:14:23;;;;;;;4.63;2.05;;;19.20;94.90;;;;;;4979188;28;20046;-76
2023/08/09 08:17:09;;;;;;;2.38;0.98;;;19.30;94.90;;;;;;4987349;28;20040;-79
2023/08/09 08:19:55;;;;;;;3.80;1.77;;;19.40;94.60;;;;;;4986739;28;20409;-77
2023/08/09 08:22:42;;;;;;;4.18;1.40;;;19.40;94.40;;;;;;4985861;28;20054;-79
2023/08/09 08:25:28;;;;;;;4.95;1.55;;;19.50;94.30;;;;;;4990267;28;20050;-77
2023/08/09 08:28:15;;;;;;;2.50;1.30;;;19.50;94.20;;;;;;4988774;28;20077;-76
2023/08/09 08:31:04;;;;;;;2.50;1.50;;;19.60;94.60;;;;;;4988008;28;20053;-78
2023/08/09 08:33:51;;;;;;;5.70;1.92;;;19.70;94.30;;;;;;4976389;28;20065;-77
2023/08/09 08:36:38;;;;;;;5.03;1.58;;;19.80;94.00;;;;;;4975429;28;20050;-75
2023/08/09 08:39:24;;;;;;;5.35;1.40;;;20.00;93.90;;;;;;4981602;28;20570;-75
2023/08/09 08:42:10;;;;;;;3.53;1.23;;;20.10;93.60;;;;;;4990052;28;20042;-76
2023/08/09 08:44:56;;;;;;;4.38;1.48;;;20.20;93.50;;;;;;4986935;28;20116;-75
2023/08/09 08:47:44;;;;;;;1.65;1.00;;;20.30;93.50;;;;;;4990910;28;20046;-74
2023/08/09 08:50:32;;;;;;;3.72;1.30;;;20.30;93.30;;;;;;4988691;28;20840;-74
2023/08/09 08:53:19;;;;;;;3.10;1.25;;;20.40;93.50;;;;;;4990426;28;20046;-75
2023/08/09 08:56:05;;;;;;;2.53;1.30;;;20.50;93.20;;;;;;4988788;28;20046;-75
2023/08/09 08:58:51;;;;;;;3.72;1.45;;;20.60;93.10;;;;;;4971850;28;20121;-76
2023/08/09 09:01:37;;;;;;;2.67;1.05;;;20.60;92.70;;;;;;4984596;28;20053;-75
2023/08/09 09:04:23;;;;;;;4.30;1.55;;;20.70;92.30;;;;;;4988800;28;20061;-75
2023/08/09 09:07:10;;;;;;;1.67;0.90;;;20.80;92.10;;;;;;4986681;28;20034;-74
2023/08/09 09:10:03;;;;;;;3.58;1.08;;;20.80;92.10;;;;;;4986564;28;20585;-75
2023/08/09 09:12:51;;;;;;;5.22;1.42;;;20.90;92.10;;;;;;4968631;28;20054;-75
2023/08/09 09:15:39;;;;;;;6.75;1.50;;;20.90;91.80;;;;;;4988488;28;20105;-75
2023/08/09 09:18:25;;;;;;;5.30;1.40;;;20.80;91.30;;;;;;4990316;28;20077;-75
2023/08/09 09:21:11;;;;;;;4.72;1.20;;;20.80;91.70;;;;;;4987558;28;20181;-74
2023/08/09 09:24:01;;;;;;;3.10;1.35;;;20.70;91.40;;;;;;4988223;28;20046;-74
2023/08/09 09:26:53;;;;;;;1.75;0.90;;;20.80;91.40;;;;;;4987034;28;20487;-74
2023/08/09 09:29:41;;;;;;;3.85;1.30;;;20.90;91.50;;;;;;4988160;28;20133;-75
2023/08/09 09:32:27;;;;;;;3.75;1.38;;;20.90;91.50;;;;;;4985793;28;20454;-74
2023/08/09 09:35:20;;;;;;;4.47;1.25;;;21.10;91.50;;;;;;4987203;28;20073;-75
2023/08/09 09:38:08;;;;;;;3.53;1.38;;;21.20;91.40;;;;;;4988183;28;20048;-74
2023/08/09 09:40:56;;;;;;;7.53;1.40;;;21.10;90.40;;;;;;4988242;28;20046;-75
2023/08/09 09:43:43;;;;;;;2.50;1.33;;;21.10;90.10;;;;;;4974830;28;20108;-76
2023/08/09 09:46:30;;;;;;;3.35;1.67;;;21.00;90.20;;;;;;4987469;28;20125;-77
2023/08/09 09:49:16;;;;;;;4.65;1.23;;;21.10;90.30;;;;;;4986300;28;20050;-75
2023/08/09 09:52:05;;;;;;;3.75;1.35;;;21.10;90.40;;;;;;4989087;28;20042;-76
2023/08/09 09:54:53;;;;;;;3.22;1.00;;;21.20;90.00;;;;;;4986364;28;20042;-75
2023/08/09 09:57:39;;;;;;;2.03;0.90;;;21.30;89.70;;;;;;4988746;28;20720;-76
2023/08/09 10:00:27;;;;;;;1.80;0.80;;;21.30;89.50;;;;;;4972700;28;20093;-76
2023/08/09 10:03:17;;;;;;;3.15;1.10;;;21.30;89.40;;;;;;4988809;28;20124;-75
2023/08/09 10:06:08;;;;;;;1.33;1.05;;;21.20;88.70;;;;;;4981907;28;20058;-75
2023/08/09 10:08:58;;;;;;;1.88;1.00;;;21.20;87.20;;;;;;4988121;28;20050;-77
2023/08/09 10:11:48;;;;;;;3.33;1.13;;;21.10;87.10;;;;;;4968057;28;20046;-76
2023/08/09 10:14:34;;;;;;;6.32;1.30;;;21.00;86.70;;;;;;4987470;28;20046;-76
2023/08/09 10:17:21;;;;;;;4.20;1.20;;;20.90;86.80;;;;;;4986601;28;20042;-78
2023/08/09 10:20:08;;;;;;;1.95;0.88;;;20.80;86.90;;;;;;4981373;28;20061;-75
2023/08/09 10:22:58;;;;;;;2.47;1.08;;;20.80;86.80;;;;;;4977488;28;20136;-76
2023/08/09 10:25:45;;;;;;;1.17;0.70;;;20.80;86.80;;;;;;4974686;28;20069;-76
2023/08/09 10:28:45;;;;;;;1.77;0.93;;;20.90;86.40;;;;;;4982791;28;20042;-77
2023/08/09 10:31:57;;;;;;;1.17;1.00;;;21.00;86.90;;;;;;4986217;28;20406;-76
2023/08/09 10:34:42;;;;;;;5.15;1.13;;;21.20;86.50;;;;;;4983243;28;20042;-79
2023/08/09 10:37:29;;;;;;;2.42;1.20;;;21.40;86.60;;;;;;4985605;28;20045;-77
2023/08/09 10:40:18;;;;;;;1.30;0.88;;;21.50;84.40;;;;;;4987038;28;20054;-77
2023/08/09 10:43:04;;;;;;;1.40;1.00;;;21.50;84.60;;;;;;4986863;28;20054;-76
2023/08/09 10:45:53;;;;;;;1.73;0.93;;;21.50;83.80;;;;;;4987952;28;20105;-78
2023/08/09 10:48:49;;;;;;;1.73;0.90;;;21.50;82.80;;;;;;4987129;28;20089;-76
2023/08/09 10:51:46;;;;;;;2.17;1.00;;;21.50;83.10;;;;;;4986731;28;20047;-76
2023/08/09 10:54:32;;;;;;;3.25;1.40;;;21.50;83.20;;;;;;4973438;28;20042;-77
2023/08/09 10:57:18;;;;;;;6.05;1.30;;;21.40;83.70;;;;;;4989968;28;20046;-76
2023/08/09 11:00:06;;;;;;;2.20;1.20;;;21.40;84.00;;;;;;4992059;28;20050;-75
2023/08/09 11:02:55;;;;;;;3.00;1.38;;;21.30;84.10;;;;;;4992717;28;20600;-74
2023/08/09 11:05:41;;;;;;;2.38;1.50;;;21.30;84.60;;;;;;4993382;28;20065;-76
2023/08/09 11:08:29;;;;;;;2.38;1.30;;;21.40;84.50;;;;;;4982289;28;20042;-74
2023/08/09 11:11:16;;;;;;;2.40;1.33;;;21.50;84.80;;;;;;5004710;28;20074;-76
2023/08/09 11:14:03;;;;;;;3.92;1.20;;;21.60;85.30;;;;;;4983644;28;20490;-77
2023/08/09 11:16:50;;;;;;;3.83;1.38;;;21.60;85.60;;;;;;4993107;28;20042;-78
2023/08/09 11:19:36;;;;;;;2.35;1.30;;;21.70;85.90;;;;;;4992443;28;20057;-78
2023/08/09 11:22:22;;;;;;;2.28;1.52;;;21.70;86.10;;;;;;4993327;28;20136;-77
2023/08/09 11:25:08;;;;;;;1.98;1.45;;;21.70;86.60;;;;;;4991291;28;20108;-77
2023/08/09 11:27:56;;;;;;;3.75;1.55;;;21.80;87.50;;;;;;4993352;28;20057;-77
2023/08/09 11:30:42;;;;;;;1.42;1.02;;;21.90;87.70;;;;;;4987686;28;20054;-76
2023/08/09 11:33:28;;;;;;;3.80;1.17;;;22.00;88.00;;;;;;4981983;28;20038;-76
2023/08/09 11:36:14;;;;;;;3.20;1.52;;;22.00;88.70;;;;;;4991583;28;20074;-70
2023/08/09 11:39:00;;;;;;;2.55;1.40;;;22.00;88.70;;;;;;4992606;28;20136;-71
2023/08/09 11:41:55;;;;;;;2.65;1.17;;;22.10;88.70;;;;;;4992305;28;20042;-70
2023/08/09 11:44:43;;;;;;;;;;;22.20;87.90;;;;;;4992152;28;20125;-71
2023/08/09 11:47:30;;;;;;;1.92;0.90;;;22.30;88.60;;;;;;4990971;28;19917;-70
2023/08/09 11:50:21;;;;;;;3.55;1.05;;;22.30;88.50;;;;;;4992377;28;20054;-71
2023/08/09 11:53:07;;;;;;;3.78;1.02;;;22.40;87.70;;;;;;4992100;28;20043;-71
2023/08/09 11:56:01;;;;;;;6.65;1.70;;;22.40;86.80;;;;;;4979531;28;20042;-70
2023/08/09 11:58:50;;;;;;;30.63;7.90;;;22.40;86.10;;;;;;4992253;28;20385;-70
2023/08/09 12:01:38;;;;;;;13.13;3.03;;;22.40;86.00;;;;;;4992328;28;20051;-70
2023/08/09 12:04:26;;;;;;;2.63;1.23;;;22.30;85.40;;;;;;4991772;28;20109;-70
2023/08/09 12:07:17;;;;;;;2.17;1.10;;;22.30;84.50;;;;;;4987190;28;20120;-70
2023/08/09 12:10:08;;;;;;;2.55;1.20;;;22.10;84.70;;;;;;4990666;28;20047;-70
2023/08/09 12:12:54;;;;;;;1.48;0.90;;;22.10;84.20;;;;;;4991527;28;20471;-70
2023/08/09 12:15:40;;;;;;;3.72;1.50;;;22.00;83.30;;;;;;4992551;28;20053;-70
2023/08/09 12:18:26;;;;;;;2.22;1.23;;;22.00;83.60;;;;;;4978941;28;20045;-71
2023/08/09 12:21:12;;;;;;;1.60;0.73;;;22.00;83.60;;;;;;4991588;28;20126;-71
2023/08/09 12:23:58;;;;;;;1.70;0.88;;;22.00;83.70;;;;;;4992752;28;20046;-71
2023/08/09 12:26:44;;;;;;;3.22;1.08;;;22.00;83.40;;;;;;4992551;28;20132;-70
2023/08/09 12:29:30;;;;;;;2.63;0.93;;;22.00;83.60;;;;;;4990274;28;20077;-70
2023/08/09 12:32:17;;;;;;;2.20;1.10;;;22.10;83.40;;;;;;4990861;28;20396;-71
2023/08/09 12:35:04;;;;;;;3.10;1.17;;;22.20;83.40;;;;;;4990872;28;20053;-70
2023/08/09 12:37:50;;;;;;;3.67;1.30;;;22.20;83.20;;;;;;4992157;28;20157;-71
2023/08/09 12:40:38;;;;;;;5.60;1.23;;;22.20;82.90;;;;;;4991117;28;20053;-71
2023/08/09 12:43:24;;;;;;;2.17;1.27;;;22.20;82.90;;;;;;4991768;28;20496;-71
2023/08/09 12:46:10;;;;;;;3.80;1.35;;;22.30;83.10;;;;;;4991898;28;20053;-71
2023/08/09 12:48:56;;;;;;;4.00;1.10;;;22.40;83.00;;;;;;4990543;28;20411;-71
2023/08/09 12:51:42;;;;;;;1.83;1.30;;;22.50;82.80;;;;;;4989085;28;20038;-70
2023/08/09 12:54:27;;;;;;;2.03;1.30;;;22.60;82.70;;;;;;4991317;28;20042;-72
2023/08/09 12:57:14;;;;;;;1.65;0.93;;;22.70;82.40;;;;;;4992892;28;20046;-71
2023/08/09 13:00:00;;;;;;;3.20;1.10;;;22.70;81.20;;;;;;4991582;28;20109;-70
2023/08/09 13:02:46;;;;;;;1.15;0.98;;;22.80;81.60;;;;;;4990443;28;20042;-70
2023/08/09 13:05:34;;;;;;;3.97;1.40;;;22.80;81.70;;;;;;4992294;28;20129;-70
2023/08/09 13:08:20;;;;;;;4.30;1.35;;;22.90;81.90;;;;;;4988802;28;20049;-70
2023/08/09 13:11:07;;;;;;;2.78;0.80;;;22.90;81.50;;;;;;4976045;28;20038;-71
2023/08/09 13:13:54;;;;;;;1.58;0.90;;;22.90;81.30;;;;;;4988594;28;20473;-71
2023/08/09 13:16:40;;;;;;;1.73;0.90;;;22.80;80.60;;;;;;4990565;28;20046;-71
2023/08/09 13:19:28;;;;;;;2.30;0.90;;;22.80;80.00;;;;;;4991440;28;20045;-70
2023/08/09 13:22:15;;;;;;;2.90;1.10;;;22.80;80.00;;;;;;4990361;28;20475;-70
2023/08/09 13:25:00;;;;;;;3.85;1.42;;;22.80;79.80;;;;;;4990506;28;20082;-70
2023/08/09 13:27:46;;;;;;;4.03;1.17;;;22.80;79.70;;;;;;4975826;28;20040;-71
2023/08/09 13:30:33;;;;;;;2.13;0.80;;;22.80;79.70;;;;;;4989512;28;20042;-70
2023/08/09 13:33:19;;;;;;;1.95;1.40;;;22.80;79.80;;;;;;4990342;28;20046;-71
2023/08/09 13:36:05;;;;;;;2.95;1.20;;;22.70;79.60;;;;;;4990862;28;20523;-72
2023/08/09 13:38:51;;;;;;;0.70;0.70;;;22.70;79.50;;;;;;4989943;28;20062;-71
2023/08/09 13:41:37;;;;;;;2.80;1.30;;;22.60;79.50;;;;;;4986898;28;20074;-71
2023/08/09 13:44:24;;;;;;;1.25;1.00;;;22.50;79.40;;;;;;4982513;28;20035;-70
2023/08/09 13:47:13;;;;;;;3.08;1.17;;;22.40;79.10;;;;;;4994051;28;20035;-71
2023/08/09 13:49:59;;;;;;;4.57;1.10;;;22.30;79.00;;;;;;4977249;28;20129;-70
2023/08/09 13:52:45;;;;;;;3.13;1.38;;;22.20;79.60;;;;;;4985772;28;20043;-70
2023/08/09 13:55:31;;;;;;;4.60;1.17;;;22.00;80.00;;;;;;4981287;28;20497;-70
2023/08/09 13:58:17;;;;;;;2.67;1.33;;;21.80;80.70;;;;;;4962268;28;20050;-70
2023/08/09 14:01:03;;;;;;;2.75;1.33;;;21.70;81.10;;;;;;4985899;28;20089;-69
2023/08/09 14:03:50;;;;;;;17.05;1.95;;;21.60;81.50;;;;;;4989723;28;20068;-71
2023/08/09 14:06:36;;;;;;;3.17;1.40;;;21.50;82.00;;;;;;4988661;28;20058;-70
2023/08/09 14:09:24;;;;;;;1.35;1.08;;;21.50;82.40;;;;;;4990562;28;20049;-71
2023/08/09 14:12:10;;;;;;;2.03;0.90;;;21.40;82.40;;;;;;4990322;28;20046;-71
2023/08/09 14:14:56;;;;;;;2.35;0.80;;;21.40;82.50;;;;;;4987685;28;20050;-71
2023/08/09 14:17:42;;;;;;;3.08;0.90;;;21.30;83.10;;;;;;4970379;28;20503;-70
2023/08/09 14:20:28;;;;;;;1.80;0.70;;;21.40;82.50;;;;;;4977290;28;20053;-70
2023/08/09 14:23:14;;;;;;;1.52;1.02;;;21.40;83.00;;;;;;4982599;28;20045;-72
2023/08/09 14:26:01;;;;;;;1.10;0.80;;;21.40;82.90;;;;;;4983651;28;20504;-71
2023/08/09 14:28:48;;;;;;;1.65;1.10;;;21.40;82.40;;;;;;4978179;28;20039;-71
2023/08/09 14:31:34;;;;;;;4.18;1.08;;;21.50;81.90;;;;;;4972755;28;20046;-70